Time;durP1;ratioP1;P1;durP2;ratioP2;P2;SDS_P1;SDS_P2;PMS_P1;PMS_P2;Temp;Humidity;BMP_temperature;BMP_pressure;BME280_temperature;BME280_humidity;BME280_pressure;Samples;Min_cycle;Max_cycle;Signal;HPM_P1;HPM_P2
2021/12/31 00:00:45;;;;;;;8.68;3.17;;;12.90;99.90;;;;;;5058367;28;20144;-71
2021/12/31 00:03:10;;;;;;;8.38;2.50;;;12.90;99.90;;;;;;5051880;28;20049;-72
2021/12/31 00:05:36;;;;;;;9.95;2.67;;;12.90;99.90;;;;;;5057410;28;20054;-72
2021/12/31 00:08:02;;;;;;;12.23;3.00;;;12.90;99.90;;;;;;5059900;28;20487;-72
2021/12/31 00:10:27;;;;;;;12.50;3.00;;;12.90;99.90;;;;;;5056103;28;20460;-71
2021/12/31 00:12:53;;;;;;;11.00;3.20;;;12.90;99.90;;;;;;5059584;28;20411;-70
2021/12/31 00:15:18;;;;;;;11.07;3.05;;;12.90;99.90;;;;;;5049163;28;20052;-71
2021/12/31 00:17:44;;;;;;;11.27;2.78;;;12.90;99.90;;;;;;5062426;28;20063;-71
2021/12/31 00:20:17;;;;;;;8.30;2.50;;;12.90;99.90;;;;;;5053585;28;20052;-68
2021/12/31 00:25:28;;;;;;;9.45;2.60;;;12.90;99.90;;;;;;5062331;28;20051;-69
2021/12/31 00:27:55;;;;;;;8.40;2.80;;;12.90;99.90;;;;;;5057739;28;20116;-70
2021/12/31 00:30:21;;;;;;;9.05;2.38;;;12.90;99.90;;;;;;5053169;28;20052;-70
2021/12/31 00:32:48;;;;;;;9.77;2.70;;;12.90;99.90;;;;;;5058226;28;20337;-70
2021/12/31 00:35:14;;;;;;;11.02;2.88;;;12.90;99.90;;;;;;5048534;28;20049;-70
2021/12/31 00:37:40;;;;;;;10.00;2.78;;;12.90;99.90;;;;;;5054325;28;20057;-69
2021/12/31 00:40:11;;;;;;;10.63;2.95;;;13.00;99.90;;;;;;5048798;28;20047;-69
2021/12/31 00:42:38;;;;;;;10.27;3.03;;;12.90;99.90;;;;;;5053664;28;20148;-70
2021/12/31 00:45:06;;;;;;;11.02;2.90;;;13.00;99.90;;;;;;5062194;28;20041;-70
2021/12/31 00:47:31;;;;;;;11.02;3.05;;;13.00;99.90;;;;;;5055281;28;20040;-70
2021/12/31 00:49:57;;;;;;;12.95;2.97;;;13.00;99.90;;;;;;5060747;28;20048;-70
2021/12/31 00:52:22;;;;;;;10.20;2.70;;;13.00;99.90;;;;;;5054637;28;20047;-70
2021/12/31 00:54:48;;;;;;;13.88;3.80;;;13.00;99.90;;;;;;5057478;28;20032;-71
2021/12/31 00:57:14;;;;;;;14.90;4.75;;;13.10;99.90;;;;;;5059819;28;20053;-70
2021/12/31 00:59:40;;;;;;;14.75;4.50;;;13.10;99.90;;;;;;5056051;28;20052;-70
2021/12/31 01:02:07;;;;;;;13.75;5.13;;;13.10;99.90;;;;;;5056905;28;20055;-70
2021/12/31 01:04:33;;;;;;;11.05;4.80;;;13.10;99.90;;;;;;5052463;28;20072;-70
2021/12/31 01:07:01;;;;;;;17.60;4.55;;;13.10;99.90;;;;;;5053391;28;20064;-70
2021/12/31 01:09:28;;;;;;;12.45;3.95;;;13.10;99.90;;;;;;5060517;28;20060;-71
2021/12/31 01:11:55;;;;;;;13.20;3.88;;;13.10;99.90;;;;;;5055252;28;20068;-71
2021/12/31 01:14:29;;;;;;;9.80;2.80;;;13.10;99.90;;;;;;5053854;28;20048;-71
2021/12/31 01:17:01;;;;;;;10.13;2.92;;;13.10;99.90;;;;;;5059013;28;20041;-71
2021/12/31 01:21:54;;;;;;;7.63;2.80;;;13.10;99.90;;;;;;5058831;28;20166;-72
2021/12/31 01:24:23;;;;;;;10.98;2.53;;;13.10;99.90;;;;;;5060550;28;20086;-71
2021/12/31 01:26:48;;;;;;;9.68;3.00;;;13.10;99.90;;;;;;5057698;28;20049;-71
2021/12/31 01:29:14;;;;;;;11.70;2.63;;;13.10;99.90;;;;;;5058511;28;20064;-71
2021/12/31 01:31:39;;;;;;;9.82;3.13;;;13.10;99.90;;;;;;5063149;28;20072;-71
2021/12/31 01:34:05;;;;;;;9.60;2.65;;;13.10;99.90;;;;;;5054176;28;20033;-70
2021/12/31 01:36:31;;;;;;;8.10;2.80;;;13.10;99.90;;;;;;5058413;28;20350;-70
2021/12/31 01:38:57;;;;;;;8.98;3.03;;;13.10;99.90;;;;;;5058428;28;20082;-71
2021/12/31 01:41:22;;;;;;;7.95;2.67;;;13.20;99.90;;;;;;5061672;28;20048;-71
2021/12/31 01:43:48;;;;;;;7.82;2.58;;;13.10;99.90;;;;;;5068604;28;20040;-71
2021/12/31 01:46:13;;;;;;;10.40;2.95;;;13.10;99.90;;;;;;5063150;28;20072;-71
2021/12/31 01:51:15;;;;;;;10.18;2.75;;;13.10;99.90;;;;;;5052230;28;20049;-70
2021/12/31 01:53:41;;;;;;;9.43;2.70;;;13.10;99.90;;;;;;5051355;28;20570;-71
2021/12/31 01:56:07;;;;;;;9.57;2.70;;;13.10;99.90;;;;;;5053207;28;20086;-71
2021/12/31 01:58:34;;;;;;;10.15;3.03;;;13.10;99.90;;;;;;5058560;28;20049;-71
2021/12/31 02:01:03;;;;;;;7.32;3.15;;;13.10;99.90;;;;;;5054370;28;20461;-71
2021/12/31 02:03:31;;;;;;;8.13;3.10;;;13.00;99.90;;;;;;5061221;28;20048;-71
2021/12/31 02:05:57;;;;;;;10.68;3.10;;;13.00;99.90;;;;;;5053517;28;20048;-71
2021/12/31 02:08:23;;;;;;;10.90;3.60;;;13.00;99.90;;;;;;5052165;28;20053;-71
2021/12/31 02:10:50;;;;;;;11.70;3.90;;;13.00;99.90;;;;;;5061266;28;20061;-71
2021/12/31 02:13:17;;;;;;;9.70;3.30;;;13.00;99.90;;;;;;5059708;28;20037;-71
2021/12/31 02:15:42;;;;;;;12.73;4.68;;;13.00;99.90;;;;;;5051748;28;20053;-70
2021/12/31 02:18:09;;;;;;;9.23;3.83;;;13.00;99.90;;;;;;5060971;28;20068;-71
2021/12/31 02:20:47;;;;;;;11.75;3.83;;;13.00;99.90;;;;;;5054063;28;20087;-71
2021/12/31 02:23:26;;;;;;;11.00;4.00;;;13.00;99.90;;;;;;5050869;28;20045;-71
2021/12/31 02:25:53;;;;;;;9.02;4.43;;;13.00;99.90;;;;;;5064001;28;20048;-71
2021/12/31 02:28:19;;;;;;;10.73;4.57;;;13.00;99.90;;;;;;5053780;28;20412;-71
2021/12/31 02:30:46;;;;;;;10.95;4.03;;;13.00;99.90;;;;;;5052010;28;20068;-71
2021/12/31 02:33:11;;;;;;;8.18;4.45;;;13.00;99.90;;;;;;5063353;28;20032;-71
2021/12/31 02:35:37;;;;;;;10.88;4.68;;;13.00;99.90;;;;;;5054567;28;20048;-71
2021/12/31 02:38:05;;;;;;;9.05;4.30;;;13.00;99.90;;;;;;5061118;28;20048;-71
2021/12/31 02:40:32;;;;;;;9.48;4.30;;;13.00;99.90;;;;;;5055491;28;20056;-71
2021/12/31 02:42:58;;;;;;;10.50;4.22;;;13.10;99.90;;;;;;5051913;28;20098;-71
2021/12/31 02:45:35;;;;;;;13.15;5.13;;;13.00;99.90;;;;;;5051567;28;20087;-71
2021/12/31 02:48:03;;;;;;;12.15;5.55;;;13.00;99.90;;;;;;5060917;28;20041;-71
2021/12/31 02:50:38;;;;;;;11.30;5.30;;;13.00;99.90;;;;;;5054251;28;20057;-71
2021/12/31 02:53:09;;;;;;;9.88;5.68;;;13.00;99.90;;;;;;5061813;28;20032;-71
2021/12/31 02:55:36;;;;;;;9.73;5.28;;;13.10;99.90;;;;;;5058971;28;20049;-71
2021/12/31 02:58:04;;;;;;;10.10;5.38;;;13.10;99.90;;;;;;5058380;28;20033;-71
2021/12/31 03:00:31;;;;;;;11.00;5.75;;;13.10;99.90;;;;;;5051486;28;20044;-72
2021/12/31 03:02:59;;;;;;;10.23;5.10;;;13.20;99.90;;;;;;5056644;28;20053;-73
2021/12/31 03:05:26;;;;;;;7.22;4.90;;;13.20;99.90;;;;;;5058612;28;20036;-71
2021/12/31 03:07:53;;;;;;;9.45;5.43;;;13.20;99.90;;;;;;5055017;28;20129;-72
2021/12/31 03:10:20;;;;;;;12.23;5.40;;;13.20;99.90;;;;;;5053864;28;20124;-72
2021/12/31 03:12:50;;;;;;;10.98;4.95;;;13.20;99.90;;;;;;5056514;28;20470;-72
2021/12/31 03:15:15;;;;;;;12.57;5.43;;;13.20;99.90;;;;;;5057643;28;20052;-72
2021/12/31 03:17:43;;;;;;;10.13;4.80;;;13.20;99.90;;;;;;5050308;28;20484;-71
2021/12/31 03:20:12;;;;;;;7.60;5.05;;;13.20;99.90;;;;;;5062294;28;20050;-71
2021/12/31 03:22:39;;;;;;;9.25;5.00;;;13.20;99.90;;;;;;5051337;28;20045;-71
2021/12/31 03:25:05;;;;;;;10.55;5.38;;;13.20;99.90;;;;;;5056200;28;20055;-71
2021/12/31 03:27:32;;;;;;;10.43;5.28;;;13.30;99.90;;;;;;5051436;28;20056;-70
2021/12/31 03:29:58;;;;;;;11.57;5.50;;;13.20;99.90;;;;;;5058953;28;20044;-71
2021/12/31 03:32:24;;;;;;;11.30;5.65;;;13.20;99.90;;;;;;5051974;28;20124;-71
2021/12/31 03:34:49;;;;;;;8.52;5.10;;;13.20;99.90;;;;;;5064304;28;20131;-71
2021/12/31 03:37:15;;;;;;;8.73;5.20;;;13.20;99.90;;;;;;5053351;28;20168;-71
2021/12/31 03:39:40;;;;;;;10.80;5.60;;;13.20;99.90;;;;;;5058044;28;20090;-71
2021/12/31 03:42:06;;;;;;;9.52;5.63;;;13.20;99.90;;;;;;5058292;28;20041;-70
2021/12/31 03:44:31;;;;;;;7.40;5.20;;;13.20;99.90;;;;;;5057574;28;20132;-71
2021/12/31 03:46:57;;;;;;;10.85;5.95;;;13.20;99.90;;;;;;5058395;28;20037;-71
2021/12/31 03:49:23;;;;;;;10.68;5.35;;;13.20;99.90;;;;;;5058706;28;20108;-71
2021/12/31 03:51:48;;;;;;;8.63;5.45;;;13.20;99.90;;;;;;5056384;28;20999;-72
2021/12/31 03:54:14;;;;;;;11.75;5.53;;;13.20;99.90;;;;;;5058590;28;20051;-71
2021/12/31 03:56:39;;;;;;;9.55;5.63;;;13.20;99.90;;;;;;5053045;28;20044;-71
2021/12/31 03:59:05;;;;;;;11.10;5.20;;;13.10;99.90;;;;;;5056804;28;20165;-71
2021/12/31 04:01:30;;;;;;;10.05;5.68;;;13.10;99.90;;;;;;5051282;28;20059;-71
2021/12/31 04:03:56;;;;;;;9.43;5.30;;;13.10;99.90;;;;;;5056696;28;20094;-71
2021/12/31 04:06:22;;;;;;;9.80;5.38;;;13.10;99.90;;;;;;5054278;28;20388;-71
2021/12/31 04:08:50;;;;;;;11.75;5.20;;;13.10;99.90;;;;;;5060649;28;20067;-71
2021/12/31 04:11:16;;;;;;;10.43;5.20;;;13.10;99.90;;;;;;5060917;28;20518;-71
2021/12/31 04:13:41;;;;;;;10.18;4.90;;;13.10;99.90;;;;;;5061096;28;20077;-71
2021/12/31 04:16:07;;;;;;;8.90;4.82;;;13.10;99.90;;;;;;5055510;28;20036;-71
2021/12/31 04:18:33;;;;;;;8.93;4.53;;;13.00;99.90;;;;;;5054920;28;20045;-71
2021/12/31 04:21:00;;;;;;;8.95;4.55;;;13.00;99.90;;;;;;5051078;28;20119;-71
2021/12/31 04:23:31;;;;;;;9.18;4.47;;;13.10;99.90;;;;;;5054712;28;20056;-71
2021/12/31 04:25:57;;;;;;;7.57;4.30;;;13.00;99.90;;;;;;5059809;28;20409;-71
2021/12/31 04:28:24;;;;;;;9.73;4.57;;;13.00;99.90;;;;;;5052044;28;20079;-70
2021/12/31 04:30:50;;;;;;;10.77;4.35;;;13.00;99.90;;;;;;5059041;28;20078;-70
2021/12/31 04:33:16;;;;;;;10.80;4.38;;;13.00;99.90;;;;;;5058842;28;20368;-70
2021/12/31 04:35:41;;;;;;;8.32;3.92;;;13.00;99.90;;;;;;5064259;28;20040;-70
2021/12/31 04:38:07;;;;;;;7.72;3.35;;;13.00;99.90;;;;;;5052478;28;20049;-70
2021/12/31 04:40:32;;;;;;;8.68;3.58;;;13.00;99.90;;;;;;5055699;28;20044;-70
2021/12/31 04:42:58;;;;;;;7.25;3.58;;;13.10;99.90;;;;;;5051687;28;20080;-71
2021/12/31 04:45:25;;;;;;;6.65;3.20;;;13.10;99.90;;;;;;5051704;28;20045;-71
2021/12/31 04:47:51;;;;;;;10.63;3.50;;;13.10;99.90;;;;;;5052601;28;20045;-71
2021/12/31 04:50:16;;;;;;;7.97;3.22;;;13.10;99.90;;;;;;5056601;28;20123;-71
2021/12/31 04:52:42;;;;;;;6.53;2.70;;;13.10;99.90;;;;;;5059071;28;20210;-71
2021/12/31 04:55:08;;;;;;;7.40;2.75;;;13.10;99.90;;;;;;5054920;28;20089;-71
2021/12/31 04:57:34;;;;;;;5.40;3.10;;;13.10;99.90;;;;;;5057059;28;20134;-71
2021/12/31 05:00:00;;;;;;;7.65;2.60;;;13.10;99.90;;;;;;5062849;28;20139;-71
2021/12/31 05:02:25;;;;;;;8.60;2.50;;;13.10;99.90;;;;;;5055756;28;20057;-71
2021/12/31 05:04:51;;;;;;;6.35;2.42;;;13.10;99.90;;;;;;5064884;28;20122;-71
2021/12/31 05:07:16;;;;;;;7.30;2.38;;;13.10;99.90;;;;;;5067192;28;20392;-70
2021/12/31 05:09:42;;;;;;;7.00;2.80;;;13.20;99.90;;;;;;5056784;28;20492;-70
2021/12/31 05:12:13;;;;;;;7.13;2.42;;;13.20;99.90;;;;;;5058902;28;20333;-70
2021/12/31 05:14:39;;;;;;;7.07;2.45;;;13.20;99.90;;;;;;5040729;28;20429;-69
2021/12/31 05:17:05;;;;;;;7.45;2.45;;;13.10;99.90;;;;;;5061995;28;20185;-70
2021/12/31 05:19:30;;;;;;;6.18;2.03;;;13.10;99.90;;;;;;5068090;28;20036;-69
2021/12/31 05:21:56;;;;;;;5.07;2.38;;;13.20;99.90;;;;;;5062764;28;20056;-70
2021/12/31 05:24:21;;;;;;;6.00;2.33;;;13.10;99.90;;;;;;5060427;28;20565;-69
2021/12/31 05:26:47;;;;;;;5.80;2.00;;;13.10;99.90;;;;;;5059380;28;20048;-69
2021/12/31 05:29:12;;;;;;;8.02;2.35;;;13.10;99.90;;;;;;5058453;28;20045;-70
2021/12/31 05:31:38;;;;;;;6.80;2.00;;;13.00;99.90;;;;;;5065541;28;20044;-70
2021/12/31 05:34:03;;;;;;;6.40;2.28;;;13.00;99.90;;;;;;5058038;28;20396;-70
2021/12/31 05:36:29;;;;;;;5.45;2.00;;;13.00;99.90;;;;;;5052115;28;20056;-70
2021/12/31 05:38:54;;;;;;;3.88;1.92;;;13.00;99.90;;;;;;5061444;28;20119;-70
2021/12/31 05:41:20;;;;;;;4.68;1.98;;;13.00;99.90;;;;;;5058976;28;20105;-70
2021/12/31 05:43:46;;;;;;;6.85;2.00;;;12.90;99.90;;;;;;5064464;28;20037;-70
2021/12/31 05:46:12;;;;;;;4.88;2.08;;;12.90;99.90;;;;;;5062969;28;20044;-71
2021/12/31 05:48:37;;;;;;;4.60;1.77;;;12.80;99.90;;;;;;5061799;28;20040;-70
2021/12/31 05:51:03;;;;;;;6.03;2.35;;;12.80;99.90;;;;;;5064234;28;20116;-70
2021/12/31 05:53:29;;;;;;;5.93;1.90;;;12.80;99.90;;;;;;5065242;28;20298;-70
2021/12/31 05:55:55;;;;;;;6.28;2.03;;;12.80;99.90;;;;;;5062634;28;20037;-70
2021/12/31 05:58:20;;;;;;;6.15;2.25;;;12.80;99.90;;;;;;5036128;28;20040;-70
2021/12/31 06:00:46;;;;;;;6.15;1.90;;;12.80;99.90;;;;;;5061979;28;20539;-70
2021/12/31 06:03:11;;;;;;;6.60;2.15;;;12.70;99.90;;;;;;5061879;28;20043;-70
2021/12/31 06:05:37;;;;;;;7.95;2.45;;;12.70;99.90;;;;;;5056727;28;20049;-70
2021/12/31 06:08:03;;;;;;;6.40;2.22;;;12.70;99.90;;;;;;5051643;28;20052;-70
2021/12/31 06:10:28;;;;;;;5.82;1.95;;;12.70;99.90;;;;;;5066262;28;20474;-70
2021/12/31 06:12:58;;;;;;;7.22;2.05;;;12.70;99.90;;;;;;5058348;28;20507;-70
2021/12/31 06:15:26;;;;;;;4.85;1.83;;;12.70;99.90;;;;;;5063196;28;20045;-70
2021/12/31 06:17:52;;;;;;;6.47;2.25;;;12.70;99.90;;;;;;5062240;28;20152;-71
2021/12/31 06:20:17;;;;;;;4.90;1.80;;;12.60;99.90;;;;;;5054379;28;21387;-70
2021/12/31 06:22:43;;;;;;;5.90;2.08;;;12.70;99.90;;;;;;5056040;28;20421;-70
2021/12/31 06:25:09;;;;;;;5.18;1.90;;;12.60;99.90;;;;;;5049194;28;20180;-70
2021/12/31 06:27:35;;;;;;;5.50;1.80;;;12.60;99.90;;;;;;5035235;28;20441;-70
2021/12/31 06:30:02;;;;;;;6.30;2.17;;;12.60;99.90;;;;;;5054814;28;20447;-70
2021/12/31 06:32:27;;;;;;;5.80;1.90;;;12.60;99.90;;;;;;5055883;28;20048;-70
2021/12/31 06:34:53;;;;;;;6.90;2.17;;;12.60;99.90;;;;;;5054429;28;20089;-70
2021/12/31 06:37:18;;;;;;;7.35;2.42;;;12.60;99.90;;;;;;5053391;28;20072;-69
2021/12/31 06:39:45;;;;;;;5.35;1.90;;;12.60;99.90;;;;;;5059424;28;20120;-69
2021/12/31 06:42:11;;;;;;;4.72;1.65;;;12.60;99.90;;;;;;5053416;28;20564;-71
2021/12/31 06:44:38;;;;;;;5.85;2.25;;;12.60;99.90;;;;;;5055218;28;20230;-71
2021/12/31 06:47:04;;;;;;;7.65;2.03;;;12.60;99.90;;;;;;5055617;28;20044;-71
2021/12/31 06:49:30;;;;;;;5.22;1.92;;;12.60;99.90;;;;;;5055083;28;20067;-71
2021/12/31 06:51:56;;;;;;;4.97;1.88;;;12.60;99.90;;;;;;5058625;28;20109;-71
2021/12/31 06:54:21;;;;;;;6.18;1.98;;;12.60;99.90;;;;;;5054502;28;20078;-70
2021/12/31 06:56:47;;;;;;;5.57;2.10;;;12.50;99.90;;;;;;5055038;28;20131;-71
2021/12/31 06:59:12;;;;;;;5.85;1.90;;;12.50;99.90;;;;;;5060863;28;20039;-69
2021/12/31 07:01:38;;;;;;;7.82;2.33;;;12.50;99.90;;;;;;5056850;28;20123;-69
2021/12/31 07:04:03;;;;;;;5.90;2.08;;;12.50;99.90;;;;;;5060096;28;20119;-71
2021/12/31 07:06:29;;;;;;;7.03;2.17;;;12.60;99.90;;;;;;5057557;28;20648;-70
2021/12/31 07:08:55;;;;;;;5.13;1.90;;;12.50;99.90;;;;;;5063830;28;20106;-69
2021/12/31 07:11:22;;;;;;;6.80;2.20;;;12.60;99.90;;;;;;5052685;28;20052;-69
2021/12/31 07:13:51;;;;;;;7.35;1.95;;;12.50;99.90;;;;;;5068224;28;20105;-70
2021/12/31 07:16:17;;;;;;;4.65;2.13;;;12.50;99.90;;;;;;5057666;28;20648;-71
2021/12/31 07:18:43;;;;;;;4.80;1.92;;;12.50;99.90;;;;;;5063271;28;20403;-71
2021/12/31 07:21:09;;;;;;;5.95;2.30;;;12.50;99.90;;;;;;5054562;28;20052;-72
2021/12/31 07:23:35;;;;;;;5.70;2.03;;;12.50;99.90;;;;;;5056026;28;20131;-71
2021/12/31 07:26:01;;;;;;;5.60;1.90;;;12.50;99.90;;;;;;5054858;28;20036;-71
2021/12/31 07:28:28;;;;;;;5.65;2.05;;;12.50;99.90;;;;;;5046858;28;20056;-70
2021/12/31 07:30:54;;;;;;;6.18;2.25;;;12.50;99.90;;;;;;5051991;28;20448;-69
2021/12/31 07:33:22;;;;;;;5.80;2.05;;;12.50;99.90;;;;;;5056439;28;20065;-70
2021/12/31 07:35:48;;;;;;;7.07;2.63;;;12.50;99.90;;;;;;5054961;28;20029;-69
2021/12/31 07:38:24;;;;;;;9.32;2.60;;;12.50;99.90;;;;;;5058781;28;20037;-69
2021/12/31 07:40:51;;;;;;;4.28;1.85;;;12.50;99.90;;;;;;5049926;28;20049;-69
2021/12/31 07:43:18;;;;;;;4.18;2.00;;;12.50;99.90;;;;;;5057154;28;20041;-69
2021/12/31 07:45:44;;;;;;;5.30;2.08;;;12.50;99.90;;;;;;5045925;28;20056;-69
2021/12/31 07:48:10;;;;;;;6.72;2.00;;;12.50;99.90;;;;;;5067666;28;20505;-69
2021/12/31 07:50:37;;;;;;;5.72;2.00;;;12.50;99.90;;;;;;5062984;28;20124;-68
2021/12/31 07:53:04;;;;;;;9.43;2.30;;;12.50;99.90;;;;;;5055295;28;20059;-71
2021/12/31 07:55:30;;;;;;;6.00;2.13;;;12.50;99.90;;;;;;5035645;28;20484;-69
2021/12/31 07:57:55;;;;;;;6.88;2.20;;;12.50;99.90;;;;;;5055575;28;20047;-68
2021/12/31 08:00:21;;;;;;;5.00;2.10;;;12.50;99.90;;;;;;5059211;28;20060;-70
2021/12/31 08:02:46;;;;;;;5.82;2.05;;;12.50;99.90;;;;;;5054588;28;20051;-71
2021/12/31 08:05:12;;;;;;;6.32;2.15;;;12.50;99.90;;;;;;5052539;28;20163;-71
2021/12/31 08:07:38;;;;;;;5.45;2.08;;;12.50;99.90;;;;;;5055482;28;20040;-72
2021/12/31 08:10:04;;;;;;;5.15;1.95;;;12.60;99.90;;;;;;5053741;28;20036;-72
2021/12/31 08:12:29;;;;;;;4.63;2.05;;;12.60;99.90;;;;;;5037331;28;20037;-72
2021/12/31 08:14:55;;;;;;;4.55;1.92;;;12.60;99.90;;;;;;5054154;28;20388;-72
2021/12/31 08:17:21;;;;;;;5.35;2.20;;;12.60;99.90;;;;;;5057173;28;20064;-73
2021/12/31 08:19:47;;;;;;;6.55;2.05;;;12.70;99.90;;;;;;5065104;28;20048;-73
2021/12/31 08:22:12;;;;;;;5.57;1.90;;;12.70;99.90;;;;;;5057252;28;20064;-73
2021/12/31 08:24:38;;;;;;;7.80;2.28;;;12.60;99.90;;;;;;5062852;28;20503;-72
2021/12/31 08:27:03;;;;;;;6.70;2.38;;;12.70;99.90;;;;;;5080390;28;20044;-72
2021/12/31 08:29:29;;;;;;;4.93;2.17;;;12.70;99.90;;;;;;5062285;28;20047;-73
2021/12/31 08:31:55;;;;;;;4.97;2.10;;;12.70;99.90;;;;;;5051309;28;20049;-71
2021/12/31 08:34:20;;;;;;;5.32;1.85;;;12.70;99.90;;;;;;5057962;28;20066;-71
2021/12/31 08:36:46;;;;;;;5.30;2.25;;;12.80;99.90;;;;;;5059386;28;20048;-70
2021/12/31 08:39:12;;;;;;;5.00;2.00;;;12.80;99.90;;;;;;5062514;28;20056;-69
2021/12/31 08:41:39;;;;;;;5.80;2.05;;;12.80;99.90;;;;;;5052913;28;20131;-69
2021/12/31 08:44:06;;;;;;;7.47;2.22;;;12.80;99.90;;;;;;5063955;28;20109;-70
2021/12/31 08:46:32;;;;;;;4.47;1.83;;;12.80;99.90;;;;;;5058477;28;20112;-70
2021/12/31 08:48:58;;;;;;;7.00;2.28;;;12.80;99.90;;;;;;5055597;28;20029;-69
2021/12/31 08:51:25;;;;;;;4.47;2.00;;;12.80;99.90;;;;;;5058868;28;20349;-72
2021/12/31 08:53:52;;;;;;;4.57;2.05;;;12.80;99.90;;;;;;5059394;28;20040;-70
2021/12/31 08:56:18;;;;;;;4.93;2.28;;;12.80;99.90;;;;;;5057618;28;20047;-70
2021/12/31 08:58:43;;;;;;;5.30;1.83;;;12.80;99.90;;;;;;5050634;28;20097;-70
2021/12/31 09:01:09;;;;;;;5.60;2.15;;;12.80;99.90;;;;;;5064524;28;20070;-69
2021/12/31 09:03:34;;;;;;;6.75;2.42;;;12.80;99.90;;;;;;5054856;28;20123;-71
2021/12/31 09:06:00;;;;;;;4.63;1.92;;;12.80;99.90;;;;;;5056994;28;20451;-71
2021/12/31 09:08:25;;;;;;;6.40;2.20;;;12.80;99.90;;;;;;5065590;28;20132;-73
2021/12/31 09:10:51;;;;;;;6.05;2.10;;;12.80;99.90;;;;;;5062425;28;20067;-72
2021/12/31 09:13:17;;;;;;;5.57;1.95;;;12.80;99.90;;;;;;5065626;28;20094;-71
2021/12/31 09:15:42;;;;;;;5.20;2.08;;;12.70;99.90;;;;;;5049539;28;20052;-71
2021/12/31 09:18:08;;;;;;;7.43;2.40;;;12.70;99.90;;;;;;5066645;28;20379;-71
2021/12/31 09:20:34;;;;;;;5.40;2.22;;;12.80;99.90;;;;;;5057103;28;20128;-73
2021/12/31 09:23:00;;;;;;;5.65;2.42;;;12.80;99.90;;;;;;5057199;28;20083;-71
2021/12/31 09:25:29;;;;;;;10.80;2.47;;;12.90;99.90;;;;;;5064222;28;20044;-69
2021/12/31 09:27:54;;;;;;;5.05;2.22;;;12.80;99.90;;;;;;5062770;28;20099;-69
2021/12/31 09:30:20;;;;;;;7.30;2.25;;;12.90;99.90;;;;;;5046214;28;20041;-68
2021/12/31 09:32:45;;;;;;;6.57;2.25;;;12.90;99.90;;;;;;5053149;28;20044;-69
2021/12/31 09:35:11;;;;;;;6.93;2.53;;;12.90;99.90;;;;;;5048252;28;20174;-68
2021/12/31 09:37:37;;;;;;;6.30;2.55;;;12.90;99.90;;;;;;5045056;28;20499;-71
2021/12/31 09:40:15;;;;;;;4.88;2.20;;;12.90;99.90;;;;;;5061897;28;20135;-74
2021/12/31 09:42:59;;;;;;;7.68;2.58;;;12.90;99.90;;;;;;5059463;28;20127;-67
2021/12/31 09:45:26;;;;;;;7.70;2.60;;;13.00;99.90;;;;;;5066898;28;20161;-67
2021/12/31 09:47:52;;;;;;;5.55;2.25;;;12.90;99.90;;;;;;5069448;28;20048;-65
2021/12/31 09:50:21;;;;;;;7.95;2.60;;;12.90;99.90;;;;;;5062238;28;20504;-66
2021/12/31 09:52:46;;;;;;;6.72;2.60;;;12.90;99.90;;;;;;5059222;28;20055;-67
2021/12/31 09:55:12;;;;;;;5.05;2.20;;;12.90;99.90;;;;;;5054660;28;20029;-67
2021/12/31 09:57:38;;;;;;;5.28;2.70;;;13.00;99.90;;;;;;5054293;28;20045;-69
2021/12/31 10:00:04;;;;;;;23.02;9.20;;;13.00;99.90;;;;;;5068018;28;20033;-70
2021/12/31 10:02:33;;;;;;;8.07;3.00;;;13.10;99.90;;;;;;5066879;28;20037;-66
2021/12/31 10:05:01;;;;;;;6.72;2.50;;;13.00;99.90;;;;;;5062366;28;20119;-67
2021/12/31 10:07:29;;;;;;;5.35;2.78;;;13.10;99.90;;;;;;5056171;28;20123;-67
2021/12/31 10:10:12;;;;;;;9.88;3.90;;;13.10;99.90;;;;;;5059342;28;20076;-68
2021/12/31 10:12:56;;;;;;;36.95;18.23;;;13.10;99.90;;;;;;5066749;28;20033;-68
2021/12/31 10:15:26;;;;;;;6.90;2.70;;;13.20;99.90;;;;;;5062406;28;20131;-67
2021/12/31 10:17:53;;;;;;;19.13;7.93;;;13.20;99.90;;;;;;5060130;28;20084;-68
2021/12/31 10:20:19;;;;;;;7.47;2.90;;;13.20;99.90;;;;;;5056665;28;20048;-67
2021/12/31 10:22:46;;;;;;;10.27;3.38;;;13.30;99.90;;;;;;5042090;28;20055;-68
2021/12/31 10:25:20;;;;;;;7.22;3.40;;;13.20;99.90;;;;;;5052772;28;20084;-68
2021/12/31 10:27:46;;;;;;;7.88;3.05;;;13.30;99.90;;;;;;5059430;28;20047;-68
2021/12/31 10:30:11;;;;;;;7.60;2.90;;;13.30;99.90;;;;;;5064811;28;20324;-68
2021/12/31 10:32:40;;;;;;;6.88;2.83;;;13.30;99.90;;;;;;5056060;28;20052;-65
2021/12/31 10:35:19;;;;;;;8.00;3.08;;;13.30;99.90;;;;;;5055759;28;20085;-69
2021/12/31 10:37:57;;;;;;;14.32;7.57;;;13.30;99.90;;;;;;5056712;28;20045;-71
2021/12/31 10:40:29;;;;;;;7.03;3.35;;;13.30;99.90;;;;;;5054294;28;20036;-70
2021/12/31 10:43:18;;;;;;;298.13;221.43;;;13.30;99.90;;;;;;5069711;28;20087;-69
2021/12/31 10:46:10;;;;;;;12.18;9.43;;;13.40;99.90;;;;;;5065366;28;20168;-66
2021/12/31 10:48:40;;;;;;;27.58;17.13;;;13.30;99.90;;;;;;5054151;28;20048;-69
2021/12/31 10:51:07;;;;;;;11.32;6.65;;;13.30;99.90;;;;;;5054781;28;20033;-68
2021/12/31 10:53:34;;;;;;;29.52;26.58;;;13.30;99.90;;;;;;5057181;28;20446;-69
2021/12/31 10:56:07;;;;;;;8.38;4.78;;;13.30;99.90;;;;;;5060427;28;20148;-65
2021/12/31 10:58:33;;;;;;;10.27;5.95;;;13.20;99.90;;;;;;5059807;28;20036;-65
2021/12/31 11:00:59;;;;;;;45.90;41.85;;;13.20;99.90;;;;;;5058221;28;20136;-64
2021/12/31 11:03:25;;;;;;;10.93;9.02;;;13.20;99.90;;;;;;5052852;28;20115;-63
2021/12/31 11:05:53;;;;;;;11.50;8.40;;;13.20;99.90;;;;;;5066307;28;20048;-68
2021/12/31 11:08:19;;;;;;;9.60;4.70;;;13.20;99.90;;;;;;5059727;28;20037;-64
2021/12/31 11:10:45;;;;;;;8.52;5.18;;;13.20;99.90;;;;;;5054526;28;20090;-67
2021/12/31 11:13:13;;;;;;;7.78;4.57;;;13.20;99.90;;;;;;5064462;28;20059;-70
2021/12/31 11:15:41;;;;;;;8.48;5.43;;;13.20;99.90;;;;;;5054092;28;20036;-69
2021/12/31 11:18:08;;;;;;;7.60;4.43;;;13.20;99.90;;;;;;5061306;28;20063;-67
2021/12/31 11:20:34;;;;;;;7.43;4.00;;;13.20;99.90;;;;;;5060076;28;20096;-72
